createdAt,value
2018-12-24T00:02:20.330Z,22.57
2018-12-24T00:04:46.974Z,22.55
2018-12-24T00:07:13.683Z,22.56
2018-12-24T00:09:40.367Z,22.52
2018-12-24T00:12:07.489Z,22.53
2018-12-24T00:14:33.701Z,22.54
2018-12-24T00:17:00.399Z,22.55
2018-12-24T00:19:27.105Z,22.53
2018-12-24T00:21:53.916Z,22.54
2018-12-24T00:24:20.619Z,22.53
2018-12-24T00:26:47.255Z,22.54
2018-12-24T00:29:13.951Z,22.52
2018-12-24T00:31:40.603Z,22.55
2018-12-24T00:34:07.292Z,22.53
2018-12-24T00:36:36.898Z,22.56
2018-12-24T00:39:03.550Z,22.54
2018-12-24T00:41:30.202Z,22.54
2018-12-24T00:43:56.846Z,22.52
2018-12-24T00:46:23.538Z,22.54
2018-12-24T00:48:50.183Z,22.54
2018-12-24T00:51:16.839Z,22.54
2018-12-24T00:53:43.525Z,22.52
2018-12-24T00:56:10.279Z,22.53
2018-12-24T00:58:39.130Z,22.50
2018-12-24T01:01:05.795Z,22.55
2018-12-24T01:03:32.431Z,22.54
2018-12-24T01:05:59.120Z,22.55
2018-12-24T01:08:25.769Z,22.53
2018-12-24T01:10:52.582Z,22.54
2018-12-24T01:13:19.219Z,22.52
2018-12-24T01:15:45.920Z,22.53
2018-12-24T01:18:12.611Z,22.53
2018-12-24T01:20:39.260Z,22.53
2018-12-24T01:23:05.957Z,22.50
2018-12-24T01:25:32.593Z,22.51
2018-12-24T01:27:59.292Z,22.51
2018-12-24T01:30:25.982Z,22.54
2018-12-24T01:32:52.627Z,22.51
2018-12-24T01:35:19.321Z,22.53
2018-12-24T01:37:45.966Z,22.53
2018-12-24T01:40:12.615Z,22.53
2018-12-24T01:42:39.318Z,22.49
2018-12-24T01:45:05.962Z,22.52
2018-12-24T01:47:32.665Z,22.54
2018-12-24T01:49:59.298Z,22.50
2018-12-24T01:52:25.980Z,22.52
2018-12-24T01:54:52.669Z,22.50
2018-12-24T01:57:19.313Z,22.53
2018-12-24T01:59:46.006Z,22.52
2018-12-24T02:02:12.705Z,22.51
2018-12-24T02:04:39.397Z,22.54
2018-12-24T02:07:06.037Z,22.52
2018-12-24T02:09:32.745Z,22.51
2018-12-24T02:11:59.388Z,22.52
2018-12-24T02:14:26.082Z,22.51
2018-12-24T02:16:52.719Z,22.51
2018-12-24T02:19:19.402Z,22.52
2018-12-24T02:21:46.047Z,22.52
2018-12-24T02:24:12.685Z,22.50
2018-12-24T02:26:39.393Z,22.48
2018-12-24T02:29:06.047Z,22.47
2018-12-24T02:31:32.706Z,22.37
2018-12-24T02:33:59.401Z,22.46
2018-12-24T02:36:26.045Z,22.49
2018-12-24T02:38:52.681Z,22.47
2018-12-24T02:41:19.393Z,22.48
2018-12-24T02:43:46.087Z,22.39
2018-12-24T02:46:12.736Z,22.29
2018-12-24T02:48:39.374Z,22.36
2018-12-24T02:51:06.033Z,22.39
2018-12-24T02:53:32.744Z,22.40
2018-12-24T02:55:59.435Z,22.45
2018-12-24T02:58:26.090Z,22.49
2018-12-24T03:00:52.815Z,22.55
2018-12-24T03:03:19.437Z,22.60
2018-12-24T03:05:46.085Z,22.61
2018-12-24T03:08:12.782Z,22.64
2018-12-24T03:10:39.473Z,22.66
2018-12-24T03:13:06.137Z,22.74
2018-12-24T03:15:32.791Z,22.67
2018-12-24T03:17:59.429Z,22.37
2018-12-24T03:20:26.077Z,22.19
2018-12-24T03:22:52.711Z,22.11
2018-12-24T03:25:19.353Z,22.23
2018-12-24T03:27:45.995Z,22.28
2018-12-24T03:30:12.653Z,22.32
2018-12-24T03:32:39.296Z,22.38
2018-12-24T03:35:05.932Z,22.43
2018-12-24T03:37:32.594Z,22.47
2018-12-24T03:39:59.232Z,22.51
2018-12-24T03:42:25.890Z,22.53
2018-12-24T03:44:52.541Z,22.58
2018-12-24T03:47:19.201Z,22.56
2018-12-24T03:49:45.822Z,22.59
2018-12-24T03:52:12.456Z,22.63
2018-12-24T03:54:39.113Z,22.65
2018-12-24T03:57:05.820Z,22.65
2018-12-24T03:59:32.404Z,22.68
2018-12-24T04:01:59.041Z,22.71
2018-12-24T04:04:25.697Z,22.67
2018-12-24T04:06:52.345Z,22.69
2018-12-24T04:09:18.987Z,22.65
2018-12-24T04:11:45.628Z,22.63
2018-12-24T04:14:12.280Z,22.64
2018-12-24T04:16:38.930Z,22.62
2018-12-24T04:19:05.651Z,22.65
2018-12-24T04:21:32.221Z,22.57
2018-12-24T04:23:58.862Z,22.63
2018-12-24T04:26:25.504Z,22.61
2018-12-24T04:28:52.158Z,22.61
2018-12-24T04:31:18.827Z,22.58
2018-12-24T04:33:45.465Z,22.61
2018-12-24T04:36:12.103Z,22.62
2018-12-24T04:38:38.770Z,22.63
2018-12-24T04:41:05.401Z,22.62
2018-12-24T04:43:32.607Z,22.59
2018-12-24T04:45:58.672Z,22.58
2018-12-24T04:48:25.321Z,22.52
2018-12-24T04:50:51.973Z,22.40
2018-12-24T04:53:18.615Z,22.47
2018-12-24T04:55:45.274Z,22.48
2018-12-24T04:58:11.927Z,22.48
2018-12-24T05:00:38.580Z,22.51
2018-12-24T05:03:05.248Z,22.55
2018-12-24T05:05:31.897Z,22.59
2018-12-24T05:07:58.541Z,22.62
2018-12-24T05:10:25.185Z,22.66
2018-12-24T05:12:51.832Z,22.68
2018-12-24T05:15:18.585Z,22.69
2018-12-24T05:17:45.249Z,22.64
2018-12-24T05:20:11.898Z,22.66
2018-12-24T05:22:38.530Z,22.63
2018-12-24T05:25:05.212Z,22.62
2018-12-24T05:27:31.824Z,22.62
2018-12-24T05:29:58.487Z,22.65
2018-12-24T05:32:25.150Z,22.62
2018-12-24T05:34:51.801Z,22.61
2018-12-24T05:37:18.443Z,22.62
2018-12-24T05:39:45.093Z,22.61
2018-12-24T05:42:11.794Z,22.62
2018-12-24T05:44:38.438Z,22.59
2018-12-24T05:47:05.094Z,22.58
2018-12-24T05:49:31.741Z,22.58
2018-12-24T05:51:58.395Z,22.57
2018-12-24T05:54:25.032Z,22.58
2018-12-24T05:56:51.679Z,22.60
2018-12-24T05:59:18.320Z,22.60
2018-12-24T06:01:44.975Z,22.60
2018-12-24T06:04:11.626Z,22.61
2018-12-24T06:06:38.274Z,22.59
2018-12-24T06:09:04.930Z,22.59
2018-12-24T06:11:31.586Z,22.64
2018-12-24T06:13:58.393Z,22.63
2018-12-24T06:16:24.905Z,22.62
2018-12-24T06:18:51.540Z,22.48
2018-12-24T06:21:18.193Z,22.36
2018-12-24T06:23:44.838Z,22.47
2018-12-24T06:26:11.472Z,22.50
2018-12-24T06:28:38.117Z,22.51
2018-12-24T06:31:04.772Z,22.59
2018-12-24T06:33:31.414Z,22.62
2018-12-24T06:35:58.051Z,22.66
2018-12-24T06:38:24.701Z,22.69
2018-12-24T06:40:51.345Z,22.75
2018-12-24T06:43:17.987Z,22.77
2018-12-24T06:45:44.640Z,22.79
2018-12-24T06:48:11.281Z,22.85
2018-12-24T06:50:37.932Z,22.87
2018-12-24T06:53:04.632Z,22.89
2018-12-24T06:55:31.396Z,22.91
2018-12-24T06:57:57.920Z,22.97
2018-12-24T07:00:24.575Z,22.96
2018-12-24T07:02:51.221Z,22.99
2018-12-24T07:05:17.857Z,23.01
2018-12-24T07:07:44.506Z,23.03
2018-12-24T07:10:11.147Z,23.05
2018-12-24T07:12:37.797Z,23.09
2018-12-24T07:15:04.441Z,23.11
2018-12-24T07:17:31.133Z,23.14
2018-12-24T07:19:57.783Z,23.18
2018-12-24T07:22:24.420Z,23.27
2018-12-24T07:24:51.175Z,23.25
2018-12-24T07:27:17.816Z,23.31
2018-12-24T07:29:44.456Z,23.33
2018-12-24T07:32:11.165Z,23.39
2018-12-24T07:34:37.816Z,23.41
2018-12-24T07:37:04.501Z,23.46
2018-12-24T07:39:31.143Z,23.51
2018-12-24T07:41:57.834Z,23.61
2018-12-24T07:44:24.608Z,23.54
2018-12-24T07:46:51.124Z,23.62
2018-12-24T07:49:17.773Z,23.51
2018-12-24T07:51:45.718Z,23.51
2018-12-24T07:54:14.352Z,23.47
2018-12-24T07:56:41.002Z,23.45
2018-12-24T07:59:07.690Z,23.44
2018-12-24T08:01:34.380Z,23.40
2018-12-24T08:04:01.026Z,23.40
2018-12-24T08:06:27.717Z,23.43
2018-12-24T08:08:54.373Z,23.43
2018-12-24T08:11:21.030Z,23.47
2018-12-24T08:13:47.673Z,23.44
2018-12-24T08:16:14.324Z,23.45
2018-12-24T08:18:40.976Z,23.46
2018-12-24T08:21:07.671Z,23.47
2018-12-24T08:23:34.310Z,23.45
2018-12-24T08:26:00.959Z,23.49
2018-12-24T08:28:27.609Z,23.48
2018-12-24T08:30:54.328Z,23.47
2018-12-24T08:33:20.945Z,23.46
2018-12-24T08:35:47.592Z,23.45
2018-12-24T08:38:15.729Z,23.45
2018-12-24T08:40:40.933Z,23.47
2018-12-24T08:43:07.580Z,23.46
2018-12-24T08:45:34.224Z,23.51
2018-12-24T08:48:00.866Z,23.55
2018-12-24T08:50:27.521Z,23.56
2018-12-24T08:52:54.178Z,23.58
2018-12-24T08:55:20.817Z,23.59
2018-12-24T08:57:47.478Z,23.61
2018-12-24T09:00:14.130Z,23.63
2018-12-24T09:02:40.769Z,23.65
2018-12-24T09:05:07.417Z,23.69
2018-12-24T09:07:34.061Z,23.72
2018-12-24T09:10:00.709Z,23.76
2018-12-24T09:12:27.362Z,23.71
2018-12-24T09:14:54.008Z,23.72
2018-12-24T09:17:20.659Z,23.70
2018-12-24T09:19:47.309Z,23.65
2018-12-24T09:22:14.017Z,23.64
2018-12-24T09:24:40.688Z,23.63
2018-12-24T09:27:07.337Z,23.68
2018-12-24T09:29:33.996Z,23.64
2018-12-24T09:32:00.646Z,23.69
2018-12-24T09:34:27.290Z,23.71
2018-12-24T09:36:53.934Z,23.78
2018-12-24T09:39:20.585Z,23.81
2018-12-24T09:41:47.281Z,23.83
2018-12-24T09:44:13.919Z,23.83
2018-12-24T09:46:40.613Z,23.92
2018-12-24T09:49:07.252Z,23.86
2018-12-24T09:51:33.896Z,23.89
2018-12-24T09:54:00.543Z,23.95
2018-12-24T09:56:27.191Z,23.96
2018-12-24T09:58:53.831Z,23.90
2018-12-24T10:01:20.517Z,23.95
2018-12-24T10:03:47.123Z,23.88
2018-12-24T10:06:13.814Z,23.91
2018-12-24T10:08:40.461Z,23.88
2018-12-24T10:11:07.105Z,23.85
2018-12-24T10:13:33.758Z,23.82
2018-12-24T10:16:00.411Z,23.78
2018-12-24T10:18:27.110Z,23.77
2018-12-24T10:20:53.762Z,23.75
2018-12-24T10:23:20.475Z,23.69
2018-12-24T10:25:47.119Z,23.65
2018-12-24T10:28:13.775Z,23.67
2018-12-24T10:30:40.465Z,23.62
2018-12-24T10:33:07.107Z,23.64
2018-12-24T10:35:33.792Z,23.64
2018-12-24T10:38:00.505Z,23.63
2018-12-24T10:40:27.144Z,23.61
2018-12-24T10:42:53.784Z,23.64
2018-12-24T10:45:20.438Z,23.63
2018-12-24T10:47:47.084Z,23.63
2018-12-24T10:50:13.733Z,23.61
2018-12-24T10:52:40.370Z,23.63
2018-12-24T10:55:07.072Z,23.64
2018-12-24T10:57:33.762Z,23.63
2018-12-24T11:00:00.478Z,23.61
2018-12-24T11:02:27.112Z,23.69
2018-12-24T11:04:53.810Z,23.69
2018-12-24T11:07:20.457Z,23.73
2018-12-24T11:09:47.154Z,23.71
2018-12-24T11:12:13.794Z,23.76
2018-12-24T11:14:40.439Z,23.76
2018-12-24T11:17:07.082Z,23.78
2018-12-24T11:19:33.773Z,23.78
2018-12-24T11:22:00.414Z,23.80
2018-12-24T11:24:28.945Z,23.80
2018-12-24T11:26:53.711Z,23.53
2018-12-24T11:29:20.420Z,23.40
2018-12-24T11:31:47.112Z,23.44
2018-12-24T11:34:13.748Z,23.59
2018-12-24T11:36:40.424Z,23.62
2018-12-24T11:39:07.070Z,23.74
2018-12-24T11:41:33.732Z,23.81
2018-12-24T11:44:00.385Z,23.85
2018-12-24T11:46:27.039Z,23.92
2018-12-24T11:48:53.734Z,23.91
2018-12-24T11:51:20.377Z,23.87
2018-12-24T11:53:47.087Z,23.88
2018-12-24T11:56:13.733Z,23.87
2018-12-24T11:58:40.434Z,23.86
2018-12-24T12:01:07.073Z,23.85
2018-12-24T12:03:33.718Z,23.84
2018-12-24T12:06:00.379Z,23.82
2018-12-24T12:08:27.016Z,23.85
2018-12-24T12:10:53.662Z,23.77
2018-12-24T12:13:20.301Z,23.85
2018-12-24T12:15:46.983Z,23.83
2018-12-24T12:18:13.620Z,23.83
2018-12-24T12:20:40.275Z,23.77
2018-12-24T12:23:06.911Z,23.81
2018-12-24T12:25:33.608Z,23.76
2018-12-24T12:28:00.255Z,23.77
2018-12-24T12:30:26.952Z,23.77
2018-12-24T12:32:53.643Z,23.75
2018-12-24T12:35:20.306Z,23.73
2018-12-24T12:37:47.008Z,23.74
2018-12-24T12:40:13.644Z,23.69
2018-12-24T12:42:40.297Z,23.73
2018-12-24T12:45:06.940Z,23.70
2018-12-24T12:47:33.594Z,23.73
2018-12-24T12:50:00.296Z,23.68
2018-12-24T12:52:26.986Z,23.73
2018-12-24T12:54:53.625Z,23.68
2018-12-24T12:57:20.306Z,23.68
2018-12-24T12:59:47.030Z,23.65
2018-12-24T13:02:13.703Z,23.64
2018-12-24T13:04:40.343Z,23.66
2018-12-24T13:07:07.019Z,23.65
2018-12-24T13:09:33.632Z,23.64
2018-12-24T13:12:00.281Z,23.66
2018-12-24T13:14:26.917Z,23.66
2018-12-24T13:16:53.623Z,23.69
2018-12-24T13:19:20.262Z,23.66
2018-12-24T13:21:46.906Z,23.68
2018-12-24T13:24:13.614Z,23.68
2018-12-24T13:26:40.313Z,23.72
2018-12-24T13:29:07.003Z,23.72
2018-12-24T13:31:33.694Z,23.73
2018-12-24T13:34:00.358Z,23.73
2018-12-24T13:36:27.002Z,23.74
2018-12-24T13:38:53.704Z,23.73
2018-12-24T13:41:20.383Z,23.71
2018-12-24T13:43:47.033Z,23.69
2018-12-24T13:46:13.682Z,23.71
2018-12-24T13:48:40.479Z,23.67
2018-12-24T13:51:07.025Z,23.69
2018-12-24T13:53:41.734Z,23.69
2018-12-24T13:56:00.354Z,23.67
2018-12-24T13:58:26.994Z,23.68
2018-12-24T14:00:53.708Z,23.64
2018-12-24T14:03:20.345Z,23.62
2018-12-24T14:05:47.038Z,23.64
2018-12-24T14:08:13.702Z,23.62
2018-12-24T14:10:40.341Z,23.64
2018-12-24T14:13:06.993Z,23.64
2018-12-24T14:15:33.653Z,23.65
2018-12-24T14:18:00.301Z,23.62
2018-12-24T14:20:26.957Z,23.63
2018-12-24T14:22:53.671Z,23.62
2018-12-24T14:25:20.386Z,23.61
2018-12-24T14:27:47.016Z,23.59
2018-12-24T14:30:13.721Z,23.63
2018-12-24T14:32:40.418Z,23.60
2018-12-24T14:35:07.054Z,23.63
2018-12-24T14:37:33.689Z,23.61
2018-12-24T14:40:00.366Z,23.62
2018-12-24T14:42:27.064Z,23.61
2018-12-24T14:44:53.723Z,23.59
2018-12-24T14:47:20.390Z,23.53
2018-12-24T14:49:47.004Z,23.60
2018-12-24T14:52:13.642Z,23.58
2018-12-24T14:54:40.282Z,23.60
2018-12-24T14:57:08.344Z,23.57
2018-12-24T14:59:33.572Z,23.60
2018-12-24T15:02:00.238Z,23.57
2018-12-24T15:04:26.879Z,23.56
2018-12-24T15:06:53.520Z,23.52
2018-12-24T15:09:20.154Z,23.53
2018-12-24T15:11:46.798Z,23.52
2018-12-24T15:14:13.499Z,23.53
2018-12-24T15:16:40.136Z,23.53
2018-12-24T15:19:06.782Z,23.52
2018-12-24T15:21:33.481Z,23.53
2018-12-24T15:24:00.129Z,23.51
2018-12-24T15:26:26.825Z,23.52
2018-12-24T15:28:53.466Z,23.53
2018-12-24T15:31:20.189Z,23.51
2018-12-24T15:33:46.851Z,23.52
2018-12-24T15:36:13.496Z,23.52
2018-12-24T15:38:40.198Z,23.51
2018-12-24T15:41:06.821Z,23.51
2018-12-24T15:43:33.508Z,23.52
2018-12-24T15:46:00.169Z,23.51
2018-12-24T15:48:26.841Z,23.49
2018-12-24T15:50:53.542Z,23.47
2018-12-24T15:53:20.207Z,23.47
2018-12-24T15:55:46.894Z,23.47
2018-12-24T15:58:13.525Z,23.45
2018-12-24T16:00:40.169Z,23.45
2018-12-24T16:03:06.867Z,23.43
2018-12-24T16:05:33.504Z,23.42
2018-12-24T16:08:00.203Z,23.38
2018-12-24T16:10:26.841Z,23.41
2018-12-24T16:12:53.490Z,23.39
2018-12-24T16:15:20.143Z,23.40
2018-12-24T16:17:46.841Z,23.39
2018-12-24T16:20:13.480Z,23.38
2018-12-24T16:22:40.124Z,23.36
2018-12-24T16:25:06.821Z,23.39
2018-12-24T16:27:33.474Z,23.40
2018-12-24T16:30:00.344Z,23.42
2018-12-24T16:32:26.824Z,23.42
2018-12-24T16:34:53.460Z,23.47
2018-12-24T16:37:20.101Z,23.46
2018-12-24T16:39:46.807Z,23.49
2018-12-24T16:42:13.446Z,23.48
2018-12-24T16:44:40.144Z,23.49
2018-12-24T16:47:06.786Z,23.48
2018-12-24T16:49:33.521Z,23.52
2018-12-24T16:52:00.213Z,23.49
2018-12-24T16:54:26.854Z,23.54
2018-12-24T16:56:53.552Z,23.51
2018-12-24T16:59:20.195Z,23.51
2018-12-24T17:01:46.881Z,23.51
2018-12-24T17:04:13.526Z,23.50
2018-12-24T17:06:40.164Z,23.48
2018-12-24T17:09:06.822Z,23.49
2018-12-24T17:11:33.470Z,23.49
2018-12-24T17:14:00.147Z,23.46
2018-12-24T17:16:26.791Z,23.47
2018-12-24T17:18:53.447Z,23.53
2018-12-24T17:21:20.096Z,23.49
2018-12-24T17:23:46.870Z,23.48
2018-12-24T17:26:13.437Z,23.51
2018-12-24T17:28:40.145Z,23.46
2018-12-24T17:31:06.786Z,23.47
2018-12-24T17:33:33.434Z,23.48
2018-12-24T17:36:00.088Z,23.47
2018-12-24T17:38:26.722Z,23.45
2018-12-24T17:40:53.373Z,23.47
2018-12-24T17:43:21.049Z,23.47
2018-12-24T17:45:46.659Z,23.46
2018-12-24T17:48:13.345Z,23.45
2018-12-24T17:50:40.052Z,23.45
2018-12-24T17:53:08.093Z,23.43
2018-12-24T17:55:33.396Z,23.46
2018-12-24T17:58:00.038Z,23.44
2018-12-24T18:00:26.705Z,23.46
2018-12-24T18:02:53.353Z,23.44
2018-12-24T18:05:20.042Z,23.46
2018-12-24T18:07:46.689Z,23.44
2018-12-24T18:10:13.394Z,23.45
2018-12-24T18:12:40.089Z,23.41
2018-12-24T18:15:06.750Z,23.45
2018-12-24T18:17:33.403Z,23.44
2018-12-24T18:20:00.160Z,23.43
2018-12-24T18:22:26.694Z,23.41
2018-12-24T18:24:53.394Z,23.43
2018-12-24T18:27:20.063Z,23.42
2018-12-24T18:29:46.718Z,23.43
2018-12-24T18:32:13.364Z,23.41
2018-12-24T18:34:40.065Z,23.44
2018-12-24T18:37:06.714Z,23.44
2018-12-24T18:39:33.373Z,23.43
2018-12-24T18:42:00.022Z,23.44
2018-12-24T18:44:26.712Z,23.45
2018-12-24T18:46:53.397Z,23.40
2018-12-24T18:49:20.097Z,23.42
2018-12-24T18:51:46.736Z,23.41
2018-12-24T18:54:13.420Z,23.40
2018-12-24T18:56:40.059Z,23.42
2018-12-24T18:59:06.692Z,23.41
2018-12-24T19:01:33.347Z,23.43
2018-12-24T19:03:59.996Z,23.42
2018-12-24T19:06:26.689Z,23.43
2018-12-24T19:08:53.339Z,23.42
2018-12-24T19:11:20.043Z,23.41
2018-12-24T19:13:48.952Z,23.41
2018-12-24T19:16:15.595Z,23.41
2018-12-24T19:18:42.246Z,23.42
2018-12-24T19:21:08.947Z,23.42
2018-12-24T19:23:35.586Z,23.38
2018-12-24T19:26:02.272Z,23.41
2018-12-24T19:28:28.914Z,23.26
2018-12-24T19:30:55.621Z,22.93
2018-12-24T19:33:22.266Z,22.76
2018-12-24T19:35:48.906Z,22.98
2018-12-24T19:38:15.560Z,23.01
2018-12-24T19:40:42.200Z,23.01
2018-12-24T19:43:08.857Z,23.11
2018-12-24T19:45:35.552Z,23.18
2018-12-24T19:48:02.191Z,23.20
2018-12-24T19:50:28.829Z,23.27
2018-12-24T19:52:55.533Z,23.31
2018-12-24T19:55:22.177Z,23.33
2018-12-24T19:57:48.822Z,23.31
2018-12-24T20:00:15.474Z,23.31
2018-12-24T20:02:42.177Z,23.27
2018-12-24T20:05:08.873Z,23.26
2018-12-24T20:07:35.517Z,23.24
2018-12-24T20:10:02.204Z,23.24
2018-12-24T20:12:28.892Z,23.21
2018-12-24T20:14:55.528Z,23.20
2018-12-24T20:17:22.168Z,23.17
2018-12-24T20:19:48.875Z,23.16
2018-12-24T20:22:15.588Z,23.14
2018-12-24T20:24:42.225Z,23.17
2018-12-24T20:27:08.861Z,23.11
2018-12-24T20:29:35.548Z,23.13
2018-12-24T20:32:03.009Z,23.10
2018-12-24T20:34:28.928Z,23.14
2018-12-24T20:36:55.565Z,23.10
2018-12-24T20:39:22.271Z,23.12
2018-12-24T20:41:48.900Z,23.06
2018-12-24T20:44:15.600Z,23.08
2018-12-24T20:46:42.241Z,23.07
2018-12-24T20:49:08.951Z,23.07
2018-12-24T20:51:35.598Z,23.07
2018-12-24T20:54:02.290Z,23.06
2018-12-24T20:56:28.926Z,23.09
2018-12-24T20:58:55.651Z,23.06
2018-12-24T21:01:22.294Z,23.05
2018-12-24T21:03:48.994Z,23.06
2018-12-24T21:06:15.635Z,23.04
2018-12-24T21:08:42.280Z,23.04
2018-12-24T21:11:08.984Z,23.05
2018-12-24T21:13:35.667Z,23.03
2018-12-24T21:16:02.333Z,23.05
2018-12-24T21:18:29.022Z,23.03
2018-12-24T21:20:55.666Z,23.03
2018-12-24T21:23:22.319Z,23.02
2018-12-24T21:25:49.073Z,23.05
2018-12-24T21:28:15.770Z,23.02
2018-12-24T21:30:42.408Z,23.03
2018-12-24T21:33:09.048Z,23.01
2018-12-24T21:35:35.840Z,23.00
2018-12-24T21:38:02.483Z,23.02
2018-12-24T21:40:29.168Z,22.99
2018-12-24T21:42:55.902Z,22.98
2018-12-24T21:45:22.597Z,22.98
2018-12-24T21:47:49.245Z,22.96
2018-12-24T21:50:15.881Z,22.98
2018-12-24T21:52:42.639Z,23.00
2018-12-24T21:55:09.261Z,22.99
2018-12-24T21:57:35.904Z,22.97
2018-12-24T22:00:02.595Z,22.99
2018-12-24T22:02:29.228Z,22.95
2018-12-24T22:04:55.949Z,22.94
2018-12-24T22:07:22.586Z,22.97
2018-12-24T22:09:49.238Z,22.98
2018-12-24T22:12:15.929Z,22.98
2018-12-24T22:14:42.560Z,22.95
2018-12-24T22:17:09.253Z,22.98
2018-12-24T22:19:35.955Z,22.96
2018-12-24T22:22:04.034Z,22.93
2018-12-24T22:24:29.298Z,22.94
2018-12-24T22:26:55.957Z,22.93
2018-12-24T22:29:22.653Z,22.95
2018-12-24T22:31:49.289Z,22.96
2018-12-24T22:34:16.650Z,22.94
2018-12-24T22:36:43.292Z,22.96
2018-12-24T22:39:09.939Z,22.93
2018-12-24T22:41:36.580Z,22.92
2018-12-24T22:44:03.217Z,22.93
2018-12-24T22:46:29.868Z,22.91
2018-12-24T22:48:56.525Z,22.93
2018-12-24T22:51:23.179Z,22.94
2018-12-24T22:53:49.823Z,22.93
2018-12-24T22:56:16.468Z,22.92
2018-12-24T22:58:43.127Z,22.93
2018-12-24T23:01:09.838Z,22.90
2018-12-24T23:03:36.419Z,22.94
2018-12-24T23:06:03.057Z,22.90
2018-12-24T23:08:29.708Z,22.91
2018-12-24T23:10:56.411Z,22.92
2018-12-24T23:13:23.054Z,22.94
2018-12-24T23:15:49.759Z,22.93
2018-12-24T23:18:16.401Z,22.90
2018-12-24T23:20:43.054Z,22.90
2018-12-24T23:23:09.695Z,22.93
2018-12-24T23:25:36.350Z,22.89
2018-12-24T23:28:03.004Z,22.88
2018-12-24T23:30:29.652Z,22.88
2018-12-24T23:32:56.327Z,22.89
2018-12-24T23:35:22.974Z,22.86
2018-12-24T23:37:49.642Z,22.86
2018-12-24T23:40:16.290Z,22.87
2018-12-24T23:42:42.943Z,22.87
2018-12-24T23:45:09.582Z,22.87
2018-12-24T23:47:36.231Z,22.86
2018-12-24T23:50:02.873Z,22.86
2018-12-24T23:52:29.509Z,22.88
2018-12-24T23:54:56.167Z,22.88
2018-12-24T23:57:22.808Z,22.85
2018-12-24T23:59:49.462Z,22.86
